Time;durP1;ratioP1;P1;durP2;ratioP2;P2;SDS_P1;SDS_P2;PMS_P1;PMS_P2;Temp;Humidity;BMP_temperature;BMP_pressure;BME280_temperature;BME280_humidity;BME280_pressure;Samples;Min_cycle;Max_cycle;Signal;HPM_P1;HPM_P2
2022/12/19 00:02:11;;;;;;;100.57;37.42;;;8.00;54.90;;;;;;5074070;28;20091;-82
2022/12/19 00:04:37;;;;;;;109.18;39.75;;;8.00;55.10;;;;;;5063446;28;20036;-82
2022/12/19 00:07:03;;;;;;;105.20;37.50;;;8.00;55.20;;;;;;5036097;28;20021;-82
2022/12/19 00:09:28;;;;;;;101.80;37.63;;;8.10;55.00;;;;;;5036098;28;20021;-82
2022/12/19 00:11:54;;;;;;;91.35;33.78;;;8.20;54.80;;;;;;5053973;28;20017;-82
2022/12/19 00:14:20;;;;;;;107.25;37.17;;;8.10;54.90;;;;;;5053927;28;20033;-82
2022/12/19 00:16:45;;;;;;;105.40;36.17;;;8.00;55.40;;;;;;5054104;28;20363;-83
2022/12/19 00:19:11;;;;;;;107.57;36.97;;;8.20;55.10;;;;;;5036100;28;20064;-82
2022/12/19 00:21:38;;;;;;;108.07;36.67;;;8.20;54.80;;;;;;5036144;28;20452;-83
2022/12/19 00:24:06;;;;;;;111.07;38.03;;;8.30;55.50;;;;;;5036011;28;20017;-83
2022/12/19 00:26:34;;;;;;;103.97;37.80;;;8.40;54.80;;;;;;5053289;28;20163;-83
2022/12/19 00:29:05;;;;;;;102.60;37.60;;;8.40;55.00;;;;;;5053956;28;20021;-83
2022/12/19 00:31:33;;;;;;;97.35;38.30;;;8.40;54.60;;;;;;5053743;28;20025;-83
2022/12/19 00:34:00;;;;;;;104.57;35.80;;;8.50;54.90;;;;;;5052961;28;20131;-82
2022/12/19 00:36:28;;;;;;;101.93;35.38;;;8.50;54.70;;;;;;5073910;28;20420;-82
2022/12/19 00:38:56;;;;;;;93.43;34.70;;;8.30;54.90;;;;;;5060763;28;20040;-82
2022/12/19 00:41:24;;;;;;;113.80;37.22;;;8.20;55.00;;;;;;5035444;28;20025;-82
2022/12/19 00:44:02;;;;;;;106.00;37.10;;;8.20;55.30;;;;;;5053621;28;20046;-82
2022/12/19 00:46:29;;;;;;;110.38;37.42;;;8.10;55.40;;;;;;5035957;28;20021;-82
2022/12/19 00:48:55;;;;;;;108.82;37.30;;;8.00;55.50;;;;;;5035767;28;20071;-83
2022/12/19 00:51:23;;;;;;;110.57;37.30;;;8.00;55.60;;;;;;5035784;28;20021;-83
2022/12/19 00:53:50;;;;;;;104.18;36.30;;;8.00;55.90;;;;;;5035492;28;20021;-83
2022/12/19 00:56:19;;;;;;;105.18;37.40;;;8.10;56.20;;;;;;5049245;28;20029;-83
2022/12/19 00:58:46;;;;;;;118.30;37.53;;;8.10;56.10;;;;;;5064034;28;20020;-83
2022/12/19 01:01:14;;;;;;;118.63;37.08;;;8.00;56.40;;;;;;5056309;28;20030;-82
2022/12/19 01:03:40;;;;;;;138.07;40.08;;;8.00;56.30;;;;;;5038746;28;20017;-83
2022/12/19 01:06:06;;;;;;;127.18;37.28;;;8.20;56.40;;;;;;5059158;28;20020;-83
2022/12/19 01:08:32;;;;;;;109.18;33.92;;;8.40;55.70;;;;;;5041577;28;20029;-83
2022/12/19 01:10:58;;;;;;;128.30;38.92;;;8.60;55.40;;;;;;5046636;28;20016;-84
2022/12/19 01:13:25;;;;;;;115.38;37.33;;;8.70;55.10;;;;;;5047152;28;20071;-83
2022/12/19 01:15:51;;;;;;;106.95;35.75;;;8.70;55.00;;;;;;5050373;28;20048;-83
2022/12/19 01:18:17;;;;;;;125.78;39.80;;;8.70;54.80;;;;;;5036663;28;20048;-83
2022/12/19 01:20:46;;;;;;;111.68;37.35;;;8.60;55.20;;;;;;5049016;28;20414;-83
2022/12/19 01:23:13;;;;;;;118.65;38.47;;;8.60;55.10;;;;;;5043522;28;20013;-83
2022/12/19 01:25:39;;;;;;;127.05;38.53;;;8.70;55.20;;;;;;5057163;28;20082;-83
2022/12/19 01:28:06;;;;;;;126.40;38.72;;;8.80;54.90;;;;;;5065152;28;20028;-83
2022/12/19 01:30:32;;;;;;;108.82;37.05;;;8.80;54.60;;;;;;5073232;28;20413;-83
2022/12/19 01:32:59;;;;;;;107.07;36.22;;;8.80;55.10;;;;;;5058117;28;20028;-83
2022/12/19 01:35:24;;;;;;;103.35;35.10;;;8.80;54.70;;;;;;5040515;28;20050;-83
2022/12/19 01:37:51;;;;;;;115.88;37.35;;;8.80;54.80;;;;;;5046477;28;20067;-82
2022/12/19 01:40:18;;;;;;;116.25;38.35;;;8.80;54.70;;;;;;5045597;28;20049;-84
2022/12/19 01:42:45;;;;;;;113.93;37.67;;;8.70;55.00;;;;;;5043809;28;20071;-84
2022/12/19 01:45:11;;;;;;;95.57;33.63;;;8.70;55.10;;;;;;5035234;28;20139;-83
2022/12/19 01:47:50;;;;;;;110.03;35.53;;;8.70;55.00;;;;;;5036738;28;20138;-83
2022/12/19 01:50:26;;;;;;;99.53;34.78;;;8.60;54.80;;;;;;5039558;28;20033;-82
2022/12/19 01:52:52;;;;;;;105.35;37.72;;;8.60;54.70;;;;;;5039800;28;20348;-82
2022/12/19 01:55:19;;;;;;;105.65;35.60;;;8.50;55.40;;;;;;5047357;28;20029;-82
2022/12/19 01:57:45;;;;;;;103.72;36.22;;;8.30;55.50;;;;;;5036141;28;20025;-83
2022/12/19 02:00:11;;;;;;;107.95;37.80;;;8.40;55.80;;;;;;5041901;28;20021;-83
2022/12/19 02:02:56;;;;;;;113.93;36.67;;;8.40;55.60;;;;;;5045529;28;20087;-83
2022/12/19 02:05:21;;;;;;;117.38;37.10;;;8.30;56.00;;;;;;5049644;28;20044;-82
2022/12/19 02:07:48;;;;;;;107.25;36.97;;;8.30;55.70;;;;;;5044952;28;20368;-83
2022/12/19 02:10:14;;;;;;;115.03;36.30;;;8.20;56.00;;;;;;5036862;28;20022;-83
2022/12/19 02:12:42;;;;;;;105.57;36.03;;;8.10;56.20;;;;;;5041749;28;20522;-81
2022/12/19 02:15:09;;;;;;;116.78;39.75;;;8.10;56.60;;;;;;5054253;28;20136;-83
2022/12/19 02:17:40;;;;;;;109.75;37.80;;;8.20;56.10;;;;;;5053933;28;20020;-83
2022/12/19 02:20:37;;;;;;;110.25;39.38;;;8.10;56.60;;;;;;5049648;28;20032;-83
2022/12/19 02:23:09;;;;;;;118.15;37.20;;;7.90;56.60;;;;;;5035070;28;20021;-83
2022/12/19 02:25:50;;;;;;;102.30;36.28;;;8.00;56.60;;;;;;5045545;28;20075;-83
2022/12/19 02:28:37;;;;;;;116.90;37.78;;;8.10;56.70;;;;;;5054945;28;20020;-82
2022/12/19 02:31:19;;;;;;;121.00;38.65;;;8.10;56.70;;;;;;5055648;28;20520;-82
2022/12/19 02:33:59;;;;;;;114.88;38.92;;;8.20;56.30;;;;;;5054366;28;20052;-83
2022/12/19 02:36:39;;;;;;;106.75;38.53;;;8.30;56.20;;;;;;5054959;28;20125;-82
2022/12/19 02:39:23;;;;;;;111.53;38.08;;;8.20;56.60;;;;;;5034781;28;20616;-84
2022/12/19 02:41:54;;;;;;;120.55;38.30;;;8.20;56.40;;;;;;5035767;28;20495;-83
2022/12/19 02:44:26;;;;;;;113.00;38.42;;;8.30;56.40;;;;;;5034502;28;20051;-83
2022/12/19 02:46:53;;;;;;;124.45;38.70;;;8.60;56.00;;;;;;5034487;28;20018;-83
2022/12/19 02:49:20;;;;;;;118.05;37.05;;;8.70;55.70;;;;;;5035624;28;20026;-83
2022/12/19 02:51:46;;;;;;;127.75;39.17;;;8.80;55.60;;;;;;5036616;28;20406;-83
2022/12/19 02:54:12;;;;;;;136.07;39.85;;;8.90;55.60;;;;;;5053454;28;20459;-83
2022/12/19 02:56:50;;;;;;;129.38;38.22;;;8.90;55.60;;;;;;5053046;28;20360;-83
2022/12/19 02:59:35;;;;;;;112.88;37.35;;;9.00;55.40;;;;;;5055490;28;20044;-83
2022/12/19 03:02:20;;;;;;;126.97;39.08;;;9.00;55.20;;;;;;5042702;28;20013;-84
2022/12/19 03:05:25;;;;;;;119.03;38.63;;;8.90;55.50;;;;;;5053246;28;20112;-84
2022/12/19 03:08:01;;;;;;;132.57;40.03;;;8.90;55.40;;;;;;5033892;28;20023;-84
2022/12/19 03:10:37;;;;;;;131.10;40.42;;;8.90;55.40;;;;;;5047181;28;20035;-84
2022/12/19 03:13:25;;;;;;;127.85;38.40;;;8.80;55.60;;;;;;5054069;28;20071;-84
2022/12/19 03:15:51;;;;;;;126.78;40.45;;;8.90;55.60;;;;;;5053893;28;20044;-84
2022/12/19 03:18:17;;;;;;;147.52;42.13;;;8.90;55.70;;;;;;5053870;28;20021;-84
2022/12/19 03:21:10;;;;;;;133.90;39.67;;;8.90;55.40;;;;;;5053565;28;20047;-82
2022/12/19 03:23:37;;;;;;;126.60;38.65;;;9.00;55.60;;;;;;5033832;28;20029;-84
2022/12/19 03:26:08;;;;;;;138.82;41.33;;;8.90;55.60;;;;;;5034896;28;20049;-84
2022/12/19 03:28:56;;;;;;;132.07;40.22;;;8.90;55.90;;;;;;5034371;28;20017;-83
2022/12/19 03:31:25;;;;;;;123.72;39.00;;;8.80;55.80;;;;;;5034093;28;20059;-84
2022/12/19 03:33:56;;;;;;;138.95;41.17;;;8.90;55.80;;;;;;5034181;28;20037;-84
2022/12/19 03:36:26;;;;;;;127.53;41.17;;;8.80;55.80;;;;;;5034029;28;20450;-83
2022/12/19 03:38:56;;;;;;;135.82;39.75;;;8.70;56.20;;;;;;5035121;28;20044;-83
2022/12/19 03:44:12;;;;;;;136.55;39.10;;;8.80;55.70;;;;;;5035070;28;20099;-84
2022/12/19 03:46:44;;;;;;;143.13;41.67;;;8.80;56.00;;;;;;5034162;28;20032;-84
2022/12/19 03:49:11;;;;;;;136.48;41.67;;;9.00;55.60;;;;;;5033318;28;20021;-83
2022/12/19 03:51:46;;;;;;;144.27;41.17;;;8.90;55.80;;;;;;5049874;28;20021;-84
2022/12/19 03:54:28;;;;;;;120.10;38.05;;;8.90;55.80;;;;;;5033307;28;20036;-84
2022/12/19 03:57:12;;;;;;;132.05;38.92;;;8.80;55.90;;;;;;5034376;28;20021;-85
2022/12/19 03:59:49;;;;;;;136.90;39.75;;;8.60;56.30;;;;;;5050009;28;20029;-82
2022/12/19 04:02:18;;;;;;;134.52;40.50;;;8.60;56.30;;;;;;5034407;28;20017;-83
2022/12/19 04:04:49;;;;;;;136.68;40.10;;;8.60;56.40;;;;;;5035243;28;20025;-82
2022/12/19 04:07:16;;;;;;;127.75;38.72;;;8.40;56.90;;;;;;5036166;28;20033;-82
2022/12/19 04:09:43;;;;;;;141.05;39.72;;;8.30;57.20;;;;;;5045521;28;20471;-82
2022/12/19 04:12:16;;;;;;;130.80;38.15;;;8.30;57.00;;;;;;5050489;28;20029;-83
2022/12/19 04:14:42;;;;;;;125.40;39.88;;;8.10;57.40;;;;;;5049549;28;20090;-82
2022/12/19 04:17:45;;;;;;;125.40;39.80;;;8.10;57.90;;;;;;5033959;28;20376;-84
2022/12/19 04:20:17;;;;;;;144.65;41.75;;;8.20;57.40;;;;;;4996206;28;20030;-83
2022/12/19 04:22:54;;;;;;;115.57;37.78;;;8.30;57.30;;;;;;4995753;28;20500;-83
2022/12/19 04:25:26;;;;;;;125.75;41.08;;;8.30;57.40;;;;;;5012351;28;20056;-82
2022/12/19 04:28:00;;;;;;;128.27;39.28;;;8.20;57.70;;;;;;4995809;28;20018;-83
2022/12/19 04:30:25;;;;;;;133.75;39.67;;;8.30;57.70;;;;;;4995513;28;20037;-82
2022/12/19 04:32:53;;;;;;;133.30;40.83;;;8.30;57.20;;;;;;5012307;28;20022;-82
2022/12/19 04:35:18;;;;;;;136.68;42.17;;;8.40;57.50;;;;;;4995570;28;20086;-84
2022/12/19 04:37:44;;;;;;;138.20;40.60;;;8.40;57.50;;;;;;5012151;28;20056;-84
2022/12/19 04:40:11;;;;;;;142.95;40.83;;;8.30;57.40;;;;;;5011994;28;20081;-85
2022/12/19 04:42:36;;;;;;;130.73;38.55;;;8.30;57.40;;;;;;4995820;28;20044;-84
2022/12/19 04:45:04;;;;;;;127.30;39.33;;;8.20;57.90;;;;;;5011633;28;20029;-81
2022/12/19 04:47:30;;;;;;;134.70;40.65;;;8.20;57.90;;;;;;4995502;28;20050;-83
2022/12/19 04:49:55;;;;;;;140.07;40.90;;;8.10;58.20;;;;;;5012050;28;20076;-81
2022/12/19 04:52:21;;;;;;;132.68;40.88;;;8.10;58.10;;;;;;4995736;28;20026;-81
2022/12/19 04:54:47;;;;;;;147.38;42.75;;;8.20;58.00;;;;;;5012948;28;20088;-81
2022/12/19 04:57:12;;;;;;;152.90;42.50;;;8.20;57.90;;;;;;5047182;28;20013;-84
2022/12/19 04:59:38;;;;;;;127.95;40.90;;;8.20;57.70;;;;;;5056274;28;20025;-83
2022/12/19 05:02:08;;;;;;;129.02;41.92;;;8.20;57.90;;;;;;5056365;28;20111;-81
2022/12/19 05:04:33;;;;;;;150.27;41.17;;;8.20;58.20;;;;;;5052569;28;20422;-82
2022/12/19 05:06:59;;;;;;;143.57;45.33;;;8.40;58.40;;;;;;5055371;28;20030;-82
2022/12/19 05:09:25;;;;;;;134.13;41.03;;;8.50;57.50;;;;;;5051067;28;20163;-82
2022/12/19 05:11:51;;;;;;;137.23;40.53;;;8.60;57.10;;;;;;5035696;28;20044;-84
2022/12/19 05:14:16;;;;;;;117.15;37.78;;;8.60;57.20;;;;;;5037320;28;20029;-84
2022/12/19 05:16:42;;;;;;;114.50;36.47;;;8.50;57.40;;;;;;5042303;28;20500;-83
2022/12/19 05:19:08;;;;;;;118.60;39.63;;;8.50;57.40;;;;;;5049425;28;20472;-83
2022/12/19 05:21:35;;;;;;;137.18;40.80;;;8.60;57.40;;;;;;5047855;28;20406;-84
2022/12/19 05:24:01;;;;;;;119.95;37.45;;;8.70;56.90;;;;;;5056324;28;20019;-82
2022/12/19 05:26:27;;;;;;;131.38;40.47;;;8.80;56.70;;;;;;5055775;28;20383;-83
2022/12/19 05:28:53;;;;;;;124.10;40.63;;;8.90;56.40;;;;;;5037649;28;20028;-82
2022/12/19 05:31:20;;;;;;;117.22;36.97;;;8.90;56.50;;;;;;5037580;28;20040;-82
2022/12/19 05:33:47;;;;;;;125.68;38.63;;;8.90;56.40;;;;;;5045445;28;20068;-83
2022/12/19 05:36:14;;;;;;;120.38;40.78;;;8.80;56.60;;;;;;5040402;28;20104;-84
2022/12/19 05:38:40;;;;;;;135.77;38.78;;;8.80;56.50;;;;;;5056521;28;20021;-82
2022/12/19 05:41:14;;;;;;;116.85;38.70;;;8.70;56.60;;;;;;5056930;28;20074;-81
2022/12/19 05:43:40;;;;;;;130.73;38.63;;;8.70;56.50;;;;;;5055365;28;20047;-82
2022/12/19 05:46:07;;;;;;;119.13;38.83;;;8.50;56.80;;;;;;5056975;28;20024;-83
2022/12/19 05:48:33;;;;;;;126.00;41.75;;;8.50;57.00;;;;;;5055906;28;20031;-83
2022/12/19 05:50:58;;;;;;;116.55;38.38;;;8.50;57.20;;;;;;5056847;28;20097;-83
2022/12/19 05:53:26;;;;;;;120.15;38.53;;;8.50;57.20;;;;;;5051400;28;20045;-81
2022/12/19 05:55:52;;;;;;;130.38;37.78;;;8.60;57.10;;;;;;5038083;28;20020;-82
2022/12/19 05:58:18;;;;;;;117.97;37.88;;;8.60;57.20;;;;;;5041954;28;20024;-82
2022/12/19 06:00:44;;;;;;;136.45;42.47;;;8.60;57.00;;;;;;5035748;28;20025;-81
2022/12/19 06:03:09;;;;;;;122.55;38.97;;;8.50;57.50;;;;;;5056169;28;20041;-82
2022/12/19 06:05:38;;;;;;;122.50;37.78;;;8.40;57.20;;;;;;5051334;28;20021;-82
2022/12/19 06:08:05;;;;;;;119.03;37.40;;;8.30;58.00;;;;;;5034554;28;20029;-82
2022/12/19 06:10:33;;;;;;;117.10;39.17;;;8.50;57.80;;;;;;5044459;28;20013;-81
2022/12/19 06:12:59;;;;;;;132.35;41.72;;;8.60;57.20;;;;;;5048276;28;20029;-83
2022/12/19 06:15:25;;;;;;;108.43;37.38;;;8.70;56.80;;;;;;5054604;28;20033;-83
2022/12/19 06:17:53;;;;;;;117.53;38.13;;;8.70;56.70;;;;;;5055227;28;20059;-82
2022/12/19 06:20:18;;;;;;;113.25;36.83;;;8.60;57.00;;;;;;5054872;28;20431;-82
2022/12/19 06:22:44;;;;;;;120.18;37.83;;;8.60;57.00;;;;;;5054736;28;20451;-85
2022/12/19 06:25:13;;;;;;;115.30;37.95;;;8.60;56.90;;;;;;5055661;28;20044;-83
2022/12/19 06:27:38;;;;;;;123.15;39.63;;;8.60;57.40;;;;;;5050704;28;20032;-81
2022/12/19 06:30:05;;;;;;;118.68;37.42;;;8.40;57.20;;;;;;5054263;28;20025;-83
2022/12/19 06:32:30;;;;;;;114.68;38.65;;;8.30;58.00;;;;;;5054984;28;20451;-84
2022/12/19 06:34:56;;;;;;;120.15;40.08;;;8.30;57.50;;;;;;5058365;28;20048;-83
2022/12/19 06:37:22;;;;;;;126.82;39.45;;;8.50;57.40;;;;;;5041701;28;20546;-83
2022/12/19 06:39:49;;;;;;;121.43;38.97;;;8.50;57.30;;;;;;5039325;28;20511;-83
2022/12/19 06:42:24;;;;;;;113.15;38.47;;;8.50;57.20;;;;;;5057670;28;20031;-82
2022/12/19 06:44:54;;;;;;;111.20;36.60;;;8.50;57.60;;;;;;5043048;28;20025;-82
2022/12/19 06:47:21;;;;;;;;;;;8.20;57.90;;;;;;5055553;28;20055;-82
2022/12/19 06:49:47;;;;;;;123.57;40.55;;;8.10;58.20;;;;;;5054755;28;19909;-81
2022/12/19 06:52:13;;;;;;;120.80;39.83;;;8.30;58.20;;;;;;5042114;28;20039;-83
2022/12/19 06:54:40;;;;;;;116.55;37.88;;;8.20;58.30;;;;;;5055012;28;20064;-83
2022/12/19 06:57:06;;;;;;;118.68;40.80;;;8.20;58.20;;;;;;5041053;28;20159;-83
2022/12/19 06:59:32;;;;;;;144.55;56.15;;;8.10;58.90;;;;;;5045743;28;20028;-83
2022/12/19 07:02:05;;;;;;;116.43;43.75;;;8.20;58.60;;;;;;5063412;28;20486;-83
2022/12/19 07:04:42;;;;;;;138.68;55.58;;;8.30;58.00;;;;;;5066706;28;20028;-80
2022/12/19 07:07:08;;;;;;;109.40;36.90;;;8.20;57.80;;;;;;5071634;28;20021;-82
2022/12/19 07:09:33;;;;;;;120.50;42.60;;;7.70;58.50;;;;;;5041182;28;20032;-83
2022/12/19 07:12:00;;;;;;;118.25;40.47;;;7.70;59.70;;;;;;5043039;28;20363;-82
2022/12/19 07:14:26;;;;;;;110.18;43.45;;;8.10;59.30;;;;;;5065671;28;20025;-80
2022/12/19 07:16:53;;;;;;;113.57;43.83;;;7.90;58.60;;;;;;5056126;28;20374;-81
2022/12/19 07:19:20;;;;;;;96.80;35.45;;;7.40;59.50;;;;;;5054939;28;20024;-82
2022/12/19 07:21:46;;;;;;;93.82;34.85;;;7.10;60.40;;;;;;5057749;28;20024;-82
2022/12/19 07:24:13;;;;;;;130.75;50.00;;;7.30;60.40;;;;;;5039701;28;20530;-82
2022/12/19 07:26:41;;;;;;;87.60;37.03;;;7.50;59.70;;;;;;5054382;28;20036;-82
2022/12/19 07:29:08;;;;;;;86.75;36.13;;;7.60;59.70;;;;;;5046377;28;20017;-81
2022/12/19 07:31:34;;;;;;;91.05;31.15;;;7.60;59.30;;;;;;5056742;28;20029;-81
2022/12/19 07:33:59;;;;;;;86.40;30.48;;;7.20;58.90;;;;;;5045675;28;20037;-82
2022/12/19 07:36:25;;;;;;;84.20;30.50;;;6.30;61.70;;;;;;5044181;28;20434;-80
2022/12/19 07:38:51;;;;;;;74.22;26.95;;;6.60;61.60;;;;;;5040232;28;20052;-83
2022/12/19 07:41:16;;;;;;;70.50;26.73;;;6.50;61.30;;;;;;5049087;28;20060;-83
2022/12/19 07:43:42;;;;;;;66.97;26.10;;;6.80;61.10;;;;;;5049312;28;20124;-82
2022/12/19 07:46:08;;;;;;;74.75;27.73;;;7.00;59.80;;;;;;5034943;28;20471;-84
2022/12/19 07:48:33;;;;;;;64.93;25.55;;;7.20;60.00;;;;;;5036400;28;20475;-82
2022/12/19 07:51:03;;;;;;;71.55;24.45;;;7.30;59.30;;;;;;5033994;28;20025;-84
2022/12/19 07:53:29;;;;;;;64.88;26.33;;;7.60;58.60;;;;;;5048211;28;20025;-84
2022/12/19 07:55:54;;;;;;;60.35;25.48;;;7.30;58.70;;;;;;5048109;28;20031;-83
2022/12/19 07:58:20;;;;;;;60.05;24.73;;;7.10;59.00;;;;;;5052043;28;20018;-80
2022/12/19 08:00:56;;;;;;;63.88;24.80;;;6.80;59.00;;;;;;5047785;28;20032;-82
2022/12/19 08:03:22;;;;;;;65.32;24.30;;;6.40;60.80;;;;;;5041407;28;20017;-83
2022/12/19 08:05:48;;;;;;;62.10;24.52;;;6.90;60.10;;;;;;5035198;28;20096;-83
2022/12/19 08:08:14;;;;;;;60.80;25.70;;;7.00;59.20;;;;;;5035961;28;20518;-84
2022/12/19 08:10:40;;;;;;;71.55;29.27;;;6.90;59.80;;;;;;5054735;28;20013;-81
2022/12/19 08:13:06;;;;;;;79.05;33.17;;;7.00;59.20;;;;;;5033643;28;20029;-84
2022/12/19 08:15:32;;;;;;;80.90;31.42;;;6.60;59.70;;;;;;5032385;28;20375;-84
2022/12/19 08:17:58;;;;;;;108.00;43.28;;;6.30;60.70;;;;;;5035054;28;20088;-85
2022/12/19 08:20:23;;;;;;;67.40;28.88;;;6.50;60.80;;;;;;5034374;28;20029;-84
2022/12/19 08:22:50;;;;;;;63.28;26.85;;;6.60;60.40;;;;;;5034959;28;20079;-86
2022/12/19 08:25:16;;;;;;;84.45;32.78;;;6.60;59.60;;;;;;5035444;28;20025;-82
2022/12/19 08:27:41;;;;;;;77.72;31.48;;;6.70;59.40;;;;;;5032159;28;20025;-84
2022/12/19 08:30:08;;;;;;;59.40;25.73;;;7.10;59.00;;;;;;5033099;28;20014;-82
2022/12/19 08:32:33;;;;;;;56.75;25.33;;;7.30;57.90;;;;;;5030850;28;20021;-81
2022/12/19 08:34:59;;;;;;;57.83;27.58;;;7.20;57.60;;;;;;5048643;28;20053;-83
2022/12/19 08:37:25;;;;;;;69.82;29.55;;;7.20;57.80;;;;;;5034650;28;20487;-82
2022/12/19 08:39:50;;;;;;;76.75;34.05;;;7.10;57.60;;;;;;5054143;28;20053;-82
2022/12/19 08:42:16;;;;;;;74.10;29.75;;;7.10;57.80;;;;;;5053287;28;20017;-83
2022/12/19 08:44:42;;;;;;;65.75;28.15;;;6.80;58.70;;;;;;5053501;28;20039;-83
2022/12/19 08:47:08;;;;;;;58.75;24.20;;;6.80;58.60;;;;;;5035921;28;20341;-83
2022/12/19 08:49:34;;;;;;;66.03;28.52;;;6.70;58.00;;;;;;5053009;28;20029;-83
2022/12/19 08:51:59;;;;;;;60.20;24.05;;;6.90;58.90;;;;;;5035740;28;20341;-82
2022/12/19 08:54:26;;;;;;;60.45;25.90;;;6.80;57.00;;;;;;5053360;28;20356;-83
2022/12/19 08:56:51;;;;;;;65.85;27.35;;;6.80;58.40;;;;;;5035622;28;20021;-82
2022/12/19 08:59:17;;;;;;;60.40;26.77;;;6.70;58.20;;;;;;5035706;28;20455;-83
2022/12/19 09:01:43;;;;;;;51.00;21.98;;;6.40;58.80;;;;;;5053788;28;20031;-83
2022/12/19 09:04:08;;;;;;;58.70;23.67;;;6.90;58.10;;;;;;5035980;28;20118;-84
2022/12/19 09:06:34;;;;;;;57.95;24.77;;;6.80;57.60;;;;;;5036581;28;20025;-82
2022/12/19 09:09:01;;;;;;;47.15;21.65;;;7.00;57.30;;;;;;5035709;28;20545;-84
2022/12/19 09:11:27;;;;;;;48.28;22.02;;;7.30;56.80;;;;;;5036282;28;20108;-84
2022/12/19 09:13:55;;;;;;;48.45;21.80;;;7.40;56.00;;;;;;5035837;28;20136;-81
2022/12/19 09:16:22;;;;;;;55.28;22.40;;;7.50;55.80;;;;;;5035924;28;20044;-81
2022/12/19 09:18:50;;;;;;;54.97;22.05;;;6.90;56.00;;;;;;5035925;28;20020;-82
2022/12/19 09:21:18;;;;;;;46.75;22.55;;;6.70;57.40;;;;;;5053989;28;20020;-80
2022/12/19 09:23:49;;;;;;;40.53;19.45;;;7.10;56.80;;;;;;5053438;28;20025;-82
2022/12/19 09:26:15;;;;;;;43.45;19.10;;;7.30;56.20;;;;;;5035528;28;20377;-81
2022/12/19 09:28:41;;;;;;;47.03;20.98;;;7.00;56.00;;;;;;5035771;28;20045;-81
2022/12/19 09:31:11;;;;;;;41.25;18.60;;;6.80;56.90;;;;;;5053369;28;20071;-82
2022/12/19 09:33:37;;;;;;;45.42;19.65;;;6.90;56.90;;;;;;5053348;28;20054;-79
2022/12/19 09:36:04;;;;;;;46.03;19.73;;;7.20;56.80;;;;;;5035847;28;20060;-82
2022/12/19 09:38:30;;;;;;;41.22;19.05;;;7.10;56.70;;;;;;5053975;28;20104;-84
2022/12/19 09:41:15;;;;;;;46.85;19.98;;;7.40;56.60;;;;;;5053473;28;20425;-81
2022/12/19 09:43:53;;;;;;;43.90;18.98;;;7.40;55.60;;;;;;5040184;28;20053;-82
2022/12/19 09:46:30;;;;;;;46.97;21.02;;;7.20;56.00;;;;;;5038822;28;20125;-81
2022/12/19 09:48:57;;;;;;;44.17;20.05;;;6.90;56.50;;;;;;5038562;28;20048;-81
2022/12/19 09:51:30;;;;;;;46.35;19.75;;;6.60;56.10;;;;;;5038840;28;20017;-80
2022/12/19 09:54:18;;;;;;;43.85;21.00;;;6.50;57.20;;;;;;5038306;28;20623;-83
2022/12/19 09:56:46;;;;;;;45.72;20.65;;;6.60;56.90;;;;;;5038206;28;20017;-82
2022/12/19 09:59:33;;;;;;;43.05;19.95;;;6.70;56.80;;;;;;5038719;28;20249;-85
2022/12/19 10:02:15;;;;;;;46.30;19.73;;;6.80;56.80;;;;;;5039087;28;20349;-85
2022/12/19 10:04:47;;;;;;;41.97;19.85;;;6.80;56.00;;;;;;5039354;28;20020;-84
2022/12/19 10:07:14;;;;;;;43.00;20.35;;;6.70;56.60;;;;;;5056628;28;20036;-85
2022/12/19 10:09:40;;;;;;;39.60;17.92;;;6.80;56.50;;;;;;5057212;28;20021;-84
2022/12/19 10:12:15;;;;;;;39.80;18.30;;;6.80;56.50;;;;;;5039528;28;20435;-85
2022/12/19 10:15:02;;;;;;;43.63;19.88;;;7.00;55.80;;;;;;5038558;28;20024;-81
2022/12/19 10:17:53;;;;;;;41.35;19.08;;;7.20;55.50;;;;;;5038581;28;20413;-82
2022/12/19 10:20:28;;;;;;;46.25;19.67;;;7.10;55.70;;;;;;5038841;28;20024;-81
2022/12/19 10:23:12;;;;;;;43.80;20.50;;;6.90;56.70;;;;;;5038385;28;20059;-82
2022/12/19 10:25:58;;;;;;;43.60;20.25;;;7.10;56.20;;;;;;5038403;28;20021;-82
2022/12/19 10:28:49;;;;;;;43.47;19.65;;;7.50;55.30;;;;;;5038540;28;20074;-82
2022/12/19 10:31:30;;;;;;;49.97;20.75;;;7.80;54.70;;;;;;5056090;28;20028;-80
2022/12/19 10:34:22;;;;;;;42.15;20.48;;;7.90;54.10;;;;;;5037491;28;20049;-82
2022/12/19 10:36:57;;;;;;;48.03;20.92;;;7.90;54.20;;;;;;5054881;28;20025;-79
2022/12/19 10:39:31;;;;;;;49.70;21.02;;;7.90;54.00;;;;;;5037474;28;20056;-82
2022/12/19 10:42:23;;;;;;;49.17;20.83;;;7.70;54.00;;;;;;5037851;28;20509;-86
2022/12/19 10:44:52;;;;;;;49.10;21.73;;;7.80;54.60;;;;;;5037851;28;20052;-86
2022/12/19 10:47:18;;;;;;;45.80;22.45;;;7.90;54.10;;;;;;5037494;28;20388;-85
2022/12/19 10:49:44;;;;;;;50.55;23.33;;;7.70;54.70;;;;;;5037693;28;20024;-87
2022/12/19 10:52:10;;;;;;;46.08;21.65;;;7.50;54.60;;;;;;5055352;28;20028;-84
2022/12/19 10:54:36;;;;;;;42.97;21.40;;;7.50;55.30;;;;;;5055186;28;20032;-85
2022/12/19 10:57:27;;;;;;;48.97;21.70;;;7.50;54.60;;;;;;5037419;28;20017;-84
2022/12/19 10:59:59;;;;;;;44.97;22.40;;;7.40;55.10;;;;;;5037394;28;20021;-84
2022/12/19 11:02:36;;;;;;;42.97;19.17;;;7.30;55.30;;;;;;5037240;28;20041;-82
2022/12/19 11:05:23;;;;;;;41.00;19.15;;;6.70;55.50;;;;;;5037338;28;20026;-85
2022/12/19 11:08:06;;;;;;;42.40;18.77;;;6.70;56.70;;;;;;5036766;28;20365;-88
2022/12/19 11:10:48;;;;;;;41.03;19.27;;;6.70;56.10;;;;;;5037047;28;20025;-85
2022/12/19 11:13:27;;;;;;;46.72;20.95;;;7.20;56.30;;;;;;5037077;28;20031;-84
2022/12/19 11:15:57;;;;;;;108.63;45.07;;;7.30;55.00;;;;;;5037056;28;20028;-84
2022/12/19 11:18:34;;;;;;;83.45;35.28;;;7.50;55.40;;;;;;5036125;28;20729;-84
2022/12/19 11:21:25;;;;;;;99.18;39.35;;;7.80;54.70;;;;;;5037908;28;20473;-84
2022/12/19 11:23:54;;;;;;;82.95;33.13;;;7.80;54.90;;;;;;5054424;28;20025;-85
2022/12/19 11:26:44;;;;;;;126.00;47.13;;;7.70;54.10;;;;;;5037736;28;20021;-84
2022/12/19 11:29:28;;;;;;;80.75;31.25;;;7.70;54.70;;;;;;5037271;28;20040;-82
2022/12/19 11:32:01;;;;;;;72.00;30.80;;;8.10;54.70;;;;;;5055277;28;20017;-83
2022/12/19 11:34:36;;;;;;;51.80;25.45;;;8.20;54.20;;;;;;5037033;28;20045;-80
2022/12/19 11:37:11;;;;;;;47.88;21.00;;;7.90;54.20;;;;;;5036759;28;20021;-80
2022/12/19 11:39:42;;;;;;;53.08;24.45;;;7.20;55.00;;;;;;5054340;28;20024;-84
2022/12/19 11:42:26;;;;;;;66.32;29.38;;;7.00;55.70;;;;;;5036747;28;20546;-84
2022/12/19 11:45:10;;;;;;;59.72;27.10;;;7.20;55.60;;;;;;5054309;28;20017;-83
2022/12/19 11:48:11;;;;;;;58.45;28.02;;;7.30;55.50;;;;;;5036424;28;20471;-86
2022/12/19 11:50:57;;;;;;;57.28;27.42;;;7.40;55.30;;;;;;5036464;28;20368;-84
2022/12/19 11:53:39;;;;;;;54.22;26.20;;;7.50;55.00;;;;;;4957290;28;20035;-84
2022/12/19 11:56:10;;;;;;;65.38;29.33;;;7.40;55.50;;;;;;4957526;28;20058;-84
2022/12/19 11:58:36;;;;;;;57.30;26.92;;;7.60;55.20;;;;;;4973540;28;20378;-84
2022/12/19 12:01:22;;;;;;;51.60;23.10;;;7.70;54.50;;;;;;4957120;28;20461;-83
2022/12/19 12:04:13;;;;;;;48.65;21.17;;;7.10;56.10;;;;;;4973172;28;20032;-84
2022/12/19 12:06:50;;;;;;;50.50;21.98;;;7.20;55.80;;;;;;4973454;28;20034;-83
2022/12/19 12:09:30;;;;;;;53.83;24.77;;;7.30;55.50;;;;;;4957144;28;20461;-83
2022/12/19 12:12:31;;;;;;;49.67;23.33;;;7.20;55.30;;;;;;4957044;28;20121;-82
2022/12/19 12:15:15;;;;;;;59.78;27.80;;;7.00;55.90;;;;;;4952665;28;20041;-84
2022/12/19 12:18:14;;;;;;;47.63;21.88;;;7.20;56.20;;;;;;4957073;28;20548;-84
2022/12/19 12:21:22;;;;;;;48.25;22.77;;;7.20;55.50;;;;;;4973281;28;20442;-83
2022/12/19 12:24:24;;;;;;;47.03;21.23;;;7.10;56.50;;;;;;4957045;28;20026;-83
2022/12/19 12:27:19;;;;;;;44.88;20.38;;;7.00;55.90;;;;;;4956943;28;20053;-84
2022/12/19 12:29:57;;;;;;;50.38;21.83;;;7.00;55.60;;;;;;4988434;28;20064;-84
2022/12/19 12:32:48;;;;;;;47.15;22.50;;;7.20;55.90;;;;;;5036387;28;20024;-84
2022/12/19 12:35:40;;;;;;;47.10;20.13;;;7.60;55.20;;;;;;5036266;28;20040;-84
2022/12/19 12:38:20;;;;;;;42.65;19.38;;;7.70;55.00;;;;;;5036844;28;20028;-85
2022/12/19 12:41:05;;;;;;;48.08;20.42;;;7.70;54.90;;;;;;5054004;28;20158;-84
2022/12/19 12:44:06;;;;;;;47.30;21.52;;;7.50;55.20;;;;;;5036579;28;20367;-83
2022/12/19 12:46:38;;;;;;;44.05;20.88;;;7.70;55.50;;;;;;5036181;28;20111;-85
2022/12/19 12:49:18;;;;;;;52.13;21.20;;;7.50;55.10;;;;;;5035754;28;20063;-83
2022/12/19 12:51:45;;;;;;;43.58;21.00;;;6.70;56.40;;;;;;5035376;28;20031;-84
2022/12/19 12:54:14;;;;;;;42.95;18.48;;;6.60;56.90;;;;;;5035648;28;20084;-82
2022/12/19 12:56:41;;;;;;;41.25;19.33;;;6.80;56.40;;;;;;5035538;28;20431;-83